sensor_id;sensor_type;location;lat;lon;timestamp;temperature;humidity
1524;DHT22;755;53.658;10.118;2022-12-19T00:01:44;-2.50;35.80
1524;DHT22;755;53.658;10.118;2022-12-19T00:11:47;-2.40;25.20
1524;DHT22;755;53.658;10.118;2022-12-19T00:21:50;-2.40;1.00
1524;DHT22;755;53.658;10.118;2022-12-19T00:31:52;-2.40;1.00
1524;DHT22;755;53.658;10.118;2022-12-19T00:41:55;-2.50;99.90
1524;DHT22;755;53.658;10.118;2022-12-19T00:51:57;-2.50;99.90
1524;DHT22;755;53.658;10.118;2022-12-19T01:02:00;-2.50;99.90
1524;DHT22;755;53.658;10.118;2022-12-19T01:12:04;-2.40;99.90
1524;DHT22;755;53.658;10.118;2022-12-19T01:22:25;-2.40;99.90
1524;DHT22;755;53.658;10.118;2022-12-19T01:32:27;-2.40;99.90
1524;DHT22;755;53.658;10.118;2022-12-19T01:42:35;-2.30;99.90
1524;DHT22;755;53.658;10.118;2022-12-19T01:52:37;-2.30;99.90
1524;DHT22;755;53.658;10.118;2022-12-19T02:02:44;-2.30;99.90
1524;DHT22;755;53.658;10.118;2022-12-19T02:12:47;-2.20;99.90
1524;DHT22;755;53.658;10.118;2022-12-19T02:23:02;-2.20;99.90
1524;DHT22;755;53.658;10.118;2022-12-19T02:33:15;-2.10;99.90
1524;DHT22;755;53.658;10.118;2022-12-19T02:43:20;-2.00;99.90
1524;DHT22;755;53.658;10.118;2022-12-19T02:53:28;-1.90;99.90
1524;DHT22;755;53.658;10.118;2022-12-19T03:03:36;-1.70;99.90
1524;DHT22;755;53.658;10.118;2022-12-19T03:13:46;-1.70;99.90
1524;DHT22;755;53.658;10.118;2022-12-19T03:23:52;-1.60;1.00
1524;DHT22;755;53.658;10.118;2022-12-19T03:33:59;-1.50;99.90
1524;DHT22;755;53.658;10.118;2022-12-19T03:44:02;-1.50;99.90
1524;DHT22;755;53.658;10.118;2022-12-19T03:54:12;-1.50;99.90
1524;DHT22;755;53.658;10.118;2022-12-19T04:04:16;-1.50;99.90
1524;DHT22;755;53.658;10.118;2022-12-19T04:14:25;-1.40;99.90
1524;DHT22;755;53.658;10.118;2022-12-19T04:24:32;-1.40;99.90
1524;DHT22;755;53.658;10.118;2022-12-19T04:34:35;-1.40;99.90
1524;DHT22;755;53.658;10.118;2022-12-19T04:44:37;-1.40;99.90
1524;DHT22;755;53.658;10.118;2022-12-19T04:54:41;-1.30;99.90
1524;DHT22;755;53.658;10.118;2022-12-19T05:04:42;-1.20;99.90
1524;DHT22;755;53.658;10.118;2022-12-19T05:14:46;-1.20;99.90
1524;DHT22;755;53.658;10.118;2022-12-19T05:24:48;-1.10;99.90
1524;DHT22;755;53.658;10.118;2022-12-19T05:34:52;-1.00;99.90
1524;DHT22;755;53.658;10.118;2022-12-19T05:44:54;-0.90;99.90
1524;DHT22;755;53.658;10.118;2022-12-19T05:54:57;-0.90;99.90
1524;DHT22;755;53.658;10.118;2022-12-19T06:04:59;-0.70;99.90
1524;DHT22;755;53.658;10.118;2022-12-19T06:15:03;-0.60;99.90
1524;DHT22;755;53.658;10.118;2022-12-19T06:25:06;-0.40;99.90
1524;DHT22;755;53.658;10.118;2022-12-19T06:35:09;-0.30;99.90
1524;DHT22;755;53.658;10.118;2022-12-19T06:45:11;-0.20;99.90
1524;DHT22;755;53.658;10.118;2022-12-19T06:55:15;-0.10;99.90
1524;DHT22;755;53.658;10.118;2022-12-19T07:05:17;0.00;99.90
1524;DHT22;755;53.658;10.118;2022-12-19T07:15:21;0.10;99.90
1524;DHT22;755;53.658;10.118;2022-12-19T07:25:23;0.10;99.90
1524;DHT22;755;53.658;10.118;2022-12-19T07:35:26;0.20;99.90
1524;DHT22;755;53.658;10.118;2022-12-19T07:45:28;0.30;99.90
1524;DHT22;755;53.658;10.118;2022-12-19T07:55:32;0.40;99.90
1524;DHT22;755;53.658;10.118;2022-12-19T08:05:34;0.50;99.90
1524;DHT22;755;53.658;10.118;2022-12-19T08:15:37;0.50;99.90
1524;DHT22;755;53.658;10.118;2022-12-19T08:25:39;0.50;99.90
1524;DHT22;755;53.658;10.118;2022-12-19T08:35:42;0.60;99.90
1524;DHT22;755;53.658;10.118;2022-12-19T08:45:47;0.60;99.90
1524;DHT22;755;53.658;10.118;2022-12-19T08:55:54;0.60;99.90
1524;DHT22;755;53.658;10.118;2022-12-19T09:05:56;0.70;99.90
1524;DHT22;755;53.658;10.118;2022-12-19T09:16:02;0.70;99.90
1524;DHT22;755;53.658;10.118;2022-12-19T09:26:05;0.80;99.90
1524;DHT22;755;53.658;10.118;2022-12-19T09:36:12;0.90;99.90
1524;DHT22;755;53.658;10.118;2022-12-19T09:46:16;1.00;99.90
1524;DHT22;755;53.658;10.118;2022-12-19T09:56:21;1.10;99.90
1524;DHT22;755;53.658;10.118;2022-12-19T10:06:24;1.20;99.90
1524;DHT22;755;53.658;10.118;2022-12-19T10:16:35;1.30;99.90
1524;DHT22;755;53.658;10.118;2022-12-19T10:26:41;1.30;99.90
1524;DHT22;755;53.658;10.118;2022-12-19T10:36:50;1.40;99.90
1524;DHT22;755;53.658;10.118;2022-12-19T10:46:53;1.50;99.90
1524;DHT22;755;53.658;10.118;2022-12-19T10:57:17;1.50;99.90
1524;DHT22;755;53.658;10.118;2022-12-19T11:07:20;1.70;99.90
1524;DHT22;755;53.658;10.118;2022-12-19T11:17:36;1.70;99.90
1524;DHT22;755;53.658;10.118;2022-12-19T11:27:41;1.80;99.90
1524;DHT22;755;53.658;10.118;2022-12-19T11:37:47;1.90;99.90
1524;DHT22;755;53.658;10.118;2022-12-19T11:47:54;2.00;99.90
1524;DHT22;755;53.658;10.118;2022-12-19T11:58:00;2.10;99.90
1524;DHT22;755;53.658;10.118;2022-12-19T12:08:42;2.30;99.90
1524;DHT22;755;53.658;10.118;2022-12-19T12:18:58;2.30;99.90
1524;DHT22;755;53.658;10.118;2022-12-19T12:29:13;2.40;99.90
1524;DHT22;755;53.658;10.118;2022-12-19T12:39:22;2.50;99.90
1524;DHT22;755;53.658;10.118;2022-12-19T12:49:36;2.60;99.90
1524;DHT22;755;53.658;10.118;2022-12-19T12:59:44;2.70;99.90
1524;DHT22;755;53.658;10.118;2022-12-19T13:09:51;2.80;99.90
1524;DHT22;755;53.658;10.118;2022-12-19T13:31:15;3.00;99.90
1524;DHT22;755;53.658;10.118;2022-12-19T13:41:29;3.10;99.90
1524;DHT22;755;53.658;10.118;2022-12-19T13:51:52;3.30;99.90
1524;DHT22;755;53.658;10.118;2022-12-19T14:01:55;3.40;99.90
1524;DHT22;755;53.658;10.118;2022-12-19T14:12:16;3.50;99.90
1524;DHT22;755;53.658;10.118;2022-12-19T14:22:41;3.60;99.90
1524;DHT22;755;53.658;10.118;2022-12-19T14:32:46;3.70;99.90
1524;DHT22;755;53.658;10.118;2022-12-19T14:42:50;3.70;99.90
1524;DHT22;755;53.658;10.118;2022-12-19T14:53:16;3.80;99.90
1524;DHT22;755;53.658;10.118;2022-12-19T15:03:22;4.00;99.90
1524;DHT22;755;53.658;10.118;2022-12-19T15:13:26;4.00;99.90
1524;DHT22;755;53.658;10.118;2022-12-19T15:23:30;4.10;99.90
1524;DHT22;755;53.658;10.118;2022-12-19T15:33:33;4.20;99.90
1524;DHT22;755;53.658;10.118;2022-12-19T15:43:35;4.60;99.90
1524;DHT22;755;53.658;10.118;2022-12-19T15:53:40;4.90;99.90
1524;DHT22;755;53.658;10.118;2022-12-19T16:03:42;5.00;99.90
1524;DHT22;755;53.658;10.118;2022-12-19T16:13:49;5.20;99.90
1524;DHT22;755;53.658;10.118;2022-12-19T16:23:52;5.20;99.90
1524;DHT22;755;53.658;10.118;2022-12-19T16:33:56;5.30;99.90
1524;DHT22;755;53.658;10.118;2022-12-19T16:43:58;5.40;99.90
1524;DHT22;755;53.658;10.118;2022-12-19T16:54:02;5.40;99.90
1524;DHT22;755;53.658;10.118;2022-12-19T17:04:04;5.50;99.90
1524;DHT22;755;53.658;10.118;2022-12-19T17:14:14;5.60;99.90
1524;DHT22;755;53.658;10.118;2022-12-19T17:24:17;5.70;99.90
1524;DHT22;755;53.658;10.118;2022-12-19T17:34:24;5.80;99.90
1524;DHT22;755;53.658;10.118;2022-12-19T17:44:26;5.90;99.90
1524;DHT22;755;53.658;10.118;2022-12-19T17:54:30;5.90;99.90
1524;DHT22;755;53.658;10.118;2022-12-19T18:04:33;6.00;99.90
1524;DHT22;755;53.658;10.118;2022-12-19T18:14:36;6.00;99.90
1524;DHT22;755;53.658;10.118;2022-12-19T18:24:38;6.00;99.90
1524;DHT22;755;53.658;10.118;2022-12-19T18:34:42;6.20;99.90
1524;DHT22;755;53.658;10.118;2022-12-19T18:44:44;6.30;99.90
1524;DHT22;755;53.658;10.118;2022-12-19T18:54:47;6.30;99.90
1524;DHT22;755;53.658;10.118;2022-12-19T19:04:49;6.30;99.90
1524;DHT22;755;53.658;10.118;2022-12-19T19:14:52;6.30;99.90
1524;DHT22;755;53.658;10.118;2022-12-19T19:24:54;6.40;99.90
1524;DHT22;755;53.658;10.118;2022-12-19T19:34:58;6.40;99.90
1524;DHT22;755;53.658;10.118;2022-12-19T19:45:00;6.40;99.90
1524;DHT22;755;53.658;10.118;2022-12-19T19:55:04;6.50;99.90
1524;DHT22;755;53.658;10.118;2022-12-19T20:05:06;6.50;99.90
1524;DHT22;755;53.658;10.118;2022-12-19T20:15:10;6.60;99.90
1524;DHT22;755;53.658;10.118;2022-12-19T20:25:12;6.60;99.90
1524;DHT22;755;53.658;10.118;2022-12-19T20:35:15;6.60;99.90
1524;DHT22;755;53.658;10.118;2022-12-19T20:45:17;6.60;99.90
1524;DHT22;755;53.658;10.118;2022-12-19T20:55:22;6.60;99.90
1524;DHT22;755;53.658;10.118;2022-12-19T21:05:24;6.60;99.90
1524;DHT22;755;53.658;10.118;2022-12-19T21:15:29;6.70;99.90
1524;DHT22;755;53.658;10.118;2022-12-19T21:25:31;6.70;99.90
1524;DHT22;755;53.658;10.118;2022-12-19T21:35:35;6.70;99.90
1524;DHT22;755;53.658;10.118;2022-12-19T21:45:37;6.60;99.90
1524;DHT22;755;53.658;10.118;2022-12-19T21:55:40;6.80;99.90
1524;DHT22;755;53.658;10.118;2022-12-19T22:05:42;6.80;99.90
1524;DHT22;755;53.658;10.118;2022-12-19T22:15:46;6.70;99.90
1524;DHT22;755;53.658;10.118;2022-12-19T22:25:47;6.60;99.90
1524;DHT22;755;53.658;10.118;2022-12-19T22:35:51;6.60;99.90
1524;DHT22;755;53.658;10.118;2022-12-19T22:45:53;6.70;99.90
1524;DHT22;755;53.658;10.118;2022-12-19T22:55:56;6.70;99.90
1524;DHT22;755;53.658;10.118;2022-12-19T23:06:06;6.80;99.90
1524;DHT22;755;53.658;10.118;2022-12-19T23:16:09;6.80;99.90
1524;DHT22;755;53.658;10.118;2022-12-19T23:26:14;6.80;99.90
1524;DHT22;755;53.658;10.118;2022-12-19T23:36:19;7.00;99.90
1524;DHT22;755;53.658;10.118;2022-12-19T23:46:24;7.20;99.90
1524;DHT22;755;53.658;10.118;2022-12-19T23:56:30;7.20;99.90
